• Join FlightAware (Why Join?)
  • Login
  • US Flag 
11:02PM EDT


 

Airport Tracker/Info


-or-


 

Live Flight TrackerFlight Track Log ✈ DAL1981 ✈ 15-Jun-2013 ✈ KSMF - KMSP

Flight Track Log - Related Links

Times and Time Zones

All times are in EDT time to prevent confusion due to time zone crossing. See the DAL1981 flight status page for this flight to view local times or setup timezone preferences in your user account.

Time Position Orientation Groundspeed Altitude Reporting Facility
EDT Latitude Longitude Course Direction KTS MPH feet Rate Location/Type
03:52PM 38.6500 -121.5333 76° East 198 228 2,000  Level Northern Cal TRACON
03:53PM 38.6167 -121.4500 117° Southeast 262 302 4,100 2,400 Climbing Northern Cal TRACON
03:54PM 38.4985 -121.2442 80° East  Level FlightAware Approximate
03:54PM 38.6333 -121.3500 78° East 287 330 6,800  Level Northern Cal TRACON
03:55PM 38.5367 -121.0832 76° East  Level FlightAware Approximate
03:56PM 38.5664 -120.9187 78° East  Level FlightAware Approximate
03:57PM 38.5939 -120.7534 78° East  Level FlightAware Approximate
03:57PM 38.6514 -121.1031 85° East 335 386 11,200  Level Oakland Center
03:58PM 38.6255 -120.5894 76° East  Level FlightAware Approximate
03:58PM 38.6625 -120.9692 84° East 373 429 13,000  Level Oakland Center
03:59PM 38.6728 -120.8303 85° East 388 447 15,300 2,220 Climbing Oakland Center
04:00PM 38.6856 -120.6592 84° East 402 463 17,600 1,980 Climbing Oakland Center
04:01PM 38.6969 -120.5100 84° East 418 481 19,400 1,680 Climbing Oakland Center
04:02PM 38.7075 -120.3589 85° East 426 490 21,100 1,440 Climbing Oakland Center
04:03PM 38.7208 -120.2019 84° East 441 507 22,400 1,320 Climbing Oakland Center
04:04PM 38.7525 -120.0453 75° East 459 528 23,800 1,140 Climbing Oakland Center
04:05PM 38.8039 -119.8933 66° East 468 539 24,800 1,020 Climbing Oakland Center
04:06PM 38.8586 -119.7428 65° Northeast 474 545 26,000 1,020 Climbing Oakland Center
04:07PM 38.9153 -119.5844 65° Northeast 487 560 26,900 960 Climbing Oakland Center
04:08PM 38.9842 -119.3933 65° Northeast 493 567 28,000 1,020 Climbing Oakland Center
04:09PM 39.0408 -119.2336 65° Northeast 493 567 29,100 1,080 Climbing Oakland Center
04:10PM 39.0975 -119.0739 65° Northeast 493 567 30,300 1,020 Climbing Oakland Center
04:11PM 39.1536 -118.9161 65° Northeast 488 562 31,300 900 Climbing Oakland Center
04:12PM 39.2056 -118.7697 65° Northeast 488 562 32,200 660 Climbing Oakland Center
04:13PM 39.2617 -118.6086 66° East 490 564 32,700 780 Climbing Oakland Center
04:14PM 39.3297 -118.4128 66° East 496 571 33,900 1,020 Climbing Oakland Center
04:15PM 39.3853 -118.2544 66° East 486 559 34,800 480 Climbing Oakland Center
04:16PM 39.4397 -118.0969 66° East 482 555 35,000 60 Climbing Oakland Center
04:17PM 39.4942 -117.9364 66° East 488 562 35,000  Level Oakland Center
04:18PM 39.5481 -117.7772 66° East 485 558 35,000  Level Oakland Center
04:19PM 39.6022 -117.6192 66° East 480 552 35,000 -60 Level Oakland Center
04:20PM 39.6547 -117.4617 67° East 478 550 34,900  Descending Oakland Center
04:21PM 39.7117 -117.2903 67° East 480 552 35,000  Climbing Oakland Center
04:22PM 39.7622 -117.1383 67° East 482 555 35,000  Level Oakland Center
04:23PM 39.8206 -116.9581 67° East 485 558 35,100  Climbing Oakland Center
04:24PM 39.8625 -116.8292 67° East 484 557 35,000 -60 Descending Salt Lake Center
04:26PM 39.9283 -116.6294 67° East 480 552 35,000  Level Oakland Center
04:27PM 39.9778 -116.4744 67° East 483 556 35,000  Level Oakland Center
04:27PM 40.0283 -116.3208 67° East 482 555 35,000  Level Salt Lake Center
04:28PM 40.0775 -116.1661 67° East 482 555 35,000  Level Salt Lake Center
04:30PM 40.1364 -115.9864 67° East 484 557 35,000 -60 Level Salt Lake Center
04:31PM 40.1856 -115.8331 67° East 482 555 34,900  Descending Salt Lake Center
04:32PM 40.2425 -115.6519 68° East 481 554 35,000  Climbing Salt Lake Center
04:33PM 40.2906 -115.4964 68° East 483 556 35,000  Level Salt Lake Center
04:34PM 40.3408 -115.3419 67° East 482 555 35,000  Level Salt Lake Center
04:35PM 40.3956 -115.1597 68° East 481 554 35,000  Level Salt Lake Center
04:36PM 40.4428 -115.0031 68° East 483 556 35,000  Level Salt Lake Center
04:37PM 40.4994 -114.8211 68° East 481 554 35,000  Level Salt Lake Center
04:38PM 40.5519 -114.6494 68° East 483 556 35,000  Level Salt Lake Center
04:39PM 40.6008 -114.4833 69° East 487 560 35,000  Level Salt Lake Center
04:40PM 40.6494 -114.3183 69° East 486 559 35,000  Level Salt Lake Center
04:41PM 40.6997 -114.1506 68° East 492 566 35,000  Level Salt Lake Center
04:42PM 40.7500 -113.9814 69° East 496 571 35,000  Level Salt Lake Center
04:43PM 40.8006 -113.8117 68° East 498 573 35,000  Level Salt Lake Center
04:44PM 40.8525 -113.6397 68° East 503 579 35,000  Level Salt Lake Center
04:45PM 40.9014 -113.4678 69° East 502 578 35,000  Level Salt Lake Center
04:46PM 40.9611 -113.2619 69° East 501 577 35,000  Level Salt Lake Center
04:47PM 41.0089 -113.0897 70° East 499 574 35,000  Level Salt Lake Center
04:48PM 41.0578 -112.9178 69° East 498 573 35,000  Level Salt Lake Center
04:49PM 41.1069 -112.7442 69° East 503 579 35,000  Level Salt Lake Center
04:50PM 41.1553 -112.5703 70° East 503 579 35,000  Level Salt Lake Center
04:51PM 41.2039 -112.3964 70° East 503 579 35,000  Level Salt Lake Center
04:52PM 41.2522 -112.2217 70° East 501 577 35,000  Level Salt Lake Center
04:53PM 41.2997 -112.0464 70° East 500 575 35,000  Level Salt Lake Center
04:54PM 41.3483 -111.8703 70° East 501 577 35,000  Level Salt Lake Center
04:55PM 41.4056 -111.6581 70° East 504 580 35,000  Level Salt Lake Center
04:56PM 41.4528 -111.4819 70° East 503 579 35,000  Level Salt Lake Center
04:57PM 41.5000 -111.3050 70° East 507 583 35,000  Level Salt Lake Center
04:58PM 41.5453 -111.1297 71° East 501 577 35,000  Level Salt Lake Center
04:59PM 41.5922 -110.9528 70° East 505 581 35,000  Level Salt Lake Center
05:00PM 41.6419 -110.7628 71° East 506 582 35,000  Level Salt Lake Center
05:01PM 41.6869 -110.5931 70° East 505 581 35,000  Level Salt Lake Center
05:02PM 41.7383 -110.3944 71° East 505 581 35,000  Level Salt Lake Center
05:03PM 41.7811 -110.2242 71° East 503 579 35,000  Level Salt Lake Center
05:04PM 41.8317 -110.0258 71° East 502 578 35,000  Level Salt Lake Center
05:05PM 41.8742 -109.8553 71° East 502 578 35,000  Level Salt Lake Center
05:07PM 41.9172 -109.6819 71° East 507 583 35,000  Level Salt Lake Center
05:08PM 41.9669 -109.4797 72° East 509 586 35,000  Level Salt Lake Center
05:09PM 42.0103 -109.3067 71° East 509 586 35,000  Level Salt Lake Center
05:10PM 42.0594 -109.1033 72° East 509 586 35,000  Level Salt Lake Center
05:11PM 42.1022 -108.9294 72° East 510 587 35,000  Level Salt Lake Center
05:12PM 42.1444 -108.7558 72° East 509 586 35,000  Level Salt Lake Center
05:13PM 42.1917 -108.5528 73° East 507 583 35,000  Level Salt Lake Center
05:14PM 42.2325 -108.3767 73° East 512 589 35,000  Level Salt Lake Center
05:15PM 42.2797 -108.1728 73° East 511 588 35,000  Level Salt Lake Center
05:16PM 42.3203 -107.9975 73° East 511 588 35,000  Level Salt Lake Center
05:17PM 42.3606 -107.8225 73° East 512 589 35,000  Level Salt Lake Center
05:18PM 42.4072 -107.6167 73° East 514 592 35,000  Level Salt Lake Center
05:19PM 42.4464 -107.4394 73° East 514 592 35,000  Level Salt Lake Center
05:20PM 42.4939 -107.2319 73° East 515 593 35,000  Level Denver Center
05:21PM 42.5325 -107.0547 73° East 515 593 35,000  Level Denver Center
05:22PM 42.5808 -106.8461 72° East 513 590 35,000 240 Level Denver Center
05:23PM 42.6183 -106.6669 74° East 515 593 35,500 720 Climbing Denver Center
05:24PM 42.6636 -106.4594 73° East 513 590 36,500 720 Climbing Denver Center
05:25PM 42.7008 -106.2828 74° East 509 586 37,000 240 Climbing Denver Center
05:26PM 42.7394 -106.1047 73° East 513 590 37,000  Level Denver Center
05:27PM 42.7831 -105.8914 74° East 524 603 37,000  Level Denver Center
05:28PM 42.8203 -105.7092 74° East 522 601 37,000  Level Denver Center
05:29PM 42.8636 -105.4967 74° East 520 598 37,000  Level Denver Center
05:30PM 42.9014 -105.3133 74° East 524 603 37,000  Level Denver Center
05:31PM 42.9456 -105.0978 74° East 525 604 37,000  Level Denver Center
05:32PM 42.9825 -104.9131 75° East 525 604 37,000  Level Denver Center
05:33PM 43.0192 -104.7286 75° East 523 602 37,000  Level Denver Center
05:34PM 43.0611 -104.5144 75° East 520 598 37,000  Level Denver Center
05:35PM 43.0969 -104.3300 75° East 521 600 37,000  Level Denver Center
05:36PM 43.1328 -104.1450 75° East 522 601 37,000  Level Denver Center
05:37PM 43.1736 -103.9292 75° East 522 601 37,000  Level Denver Center
05:38PM 43.2078 -103.7450 76° East 522 601 37,000  Level Denver Center
05:39PM 43.2483 -103.5292 75° East 522 601 37,000  Level Denver Center
05:40PM 43.2822 -103.3442 76° East 523 602 37,000  Level Denver Center
05:42PM 43.3214 -103.1261 76° East 527 606 37,000  Level Denver Center
05:43PM 43.3550 -102.9408 76° East 523 602 37,000  Level Denver Center
05:44PM 43.3892 -102.7547 76° East 524 603 37,000  Level Denver Center
05:45PM 43.4264 -102.5386 77° East 521 600 37,000  Level Denver Center
05:46PM 43.4583 -102.3533 77° East 520 598 37,000  Level Denver Center
05:47PM 43.4958 -102.1364 77° East 522 601 37,000  Level Denver Center
05:48PM 43.5294 -101.9372 77° East 527 606 37,000  Level Denver Center
05:49PM 43.5628 -101.7411 77° East 526 605 37,000  Level Denver Center
05:50PM 43.5958 -101.5422 77° East 533 613 37,000  Level Denver Center
05:51PM 43.6289 -101.3433 77° East 533 613 37,000  Level Denver Center
05:52PM 43.6617 -101.1422 77° East 538 619 37,000  Level Denver Center
05:52PM 43.6814 -101.0236 77° East 538 619 37,000  Level Minneapolis Center
05:53PM 43.6933 -100.9414 79° East 537 618 37,000  Level Denver Center
05:54PM 43.7200 -100.7825 77° East 538 619 37,000  Level Minneapolis Center
05:55PM 43.7517 -100.5806 78° East 541 623 37,000  Level Minneapolis Center
05:56PM 43.7889 -100.3411 78° East 535 616 37,000  Level Minneapolis Center
05:57PM 43.8203 -100.1422 78° East 534 615 37,000  Level Minneapolis Center
05:58PM 43.8439 -99.9847 78° East 530 610 37,000  Level Minneapolis Center
05:59PM 43.8800 -99.7442 78° East 531 611 37,000  Level Minneapolis Center
06:00PM 43.9028 -99.5825 79° East 534 615 37,000  Level Minneapolis Center
06:01PM 43.9378 -99.3425 78° East 533 613 37,000  Level Minneapolis Center
06:02PM 43.9736 -99.1000 78° East 536 617 37,000  Level Minneapolis Center
06:03PM 44.0017 -98.8989 79° East 534 615 37,000  Level Minneapolis Center
06:04PM 44.0242 -98.7367 79° East 536 617 37,000  Level Minneapolis Center
06:05PM 44.0561 -98.5122 79° East 536 617 37,000  Level Minneapolis Center
06:06PM 44.0886 -98.2703 79° East 533 613 37,000  Level Minneapolis Center
06:07PM 44.1208 -98.0294 79° East 529 609 37,000  Level Minneapolis Center
06:08PM 44.1478 -97.8283 79° East 530 610 37,000  Level Minneapolis Center
06:09PM 44.1744 -97.6261 80° East 531 611 37,000  Level Minneapolis Center
06:10PM 44.1947 -97.4644 80° East 531 611 37,000  Level Minneapolis Center
06:11PM 44.2250 -97.2219 80° East 530 610 37,000  Level Minneapolis Center
06:13PM 44.2553 -96.9803 80° East 529 609 37,000  Level Minneapolis Center
06:14PM 44.2853 -96.7386 80° East 527 606 37,000 -120 Level Minneapolis Center
06:15PM 44.3092 -96.5394 80° East 521 600 36,800 -480 Descending Minneapolis Center
06:16PM 44.3314 -96.3481 81° East 502 578 36,100 -780 Descending Minneapolis Center
06:17PM 44.3558 -96.1533 80° East 496 571 35,300 -960 Descending Minneapolis Center
06:18PM 44.3767 -95.9619 81° East 493 567 34,200 -1,020 Descending Minneapolis Center
06:19PM 44.3981 -95.7692 81° East 496 571 33,300 -1,680 Descending Minneapolis Center
06:20PM 44.4242 -95.5292 81° East 507 583 30,500 -2,580 Descending Minneapolis Center
06:21PM 44.4456 -95.3267 82° East 521 600 27,500 -2,700 Descending Minneapolis Center
06:22PM 44.4672 -95.1336 81° East 504 580 25,000 -2,340 Descending Minneapolis Center
06:23PM 44.5067 -94.9564 73° East 480 552 22,700 -2,520 Descending Minneapolis Center
06:24PM 44.5558 -94.7553 71° East 460 529 19,900 -2,460 Descending Minneapolis Center
06:25PM 44.5928 -94.5994 72° East 440 506 17,700 -2,220 Descending Minneapolis Center
06:26PM 44.6283 -94.4439 72° East 421 484 15,400 -2,220 Descending Minneapolis Center
06:27PM 44.6622 -94.2944 72° East 406 467 13,200 -2,100 Descending Minneapolis Center
06:28PM 44.6953 -94.1475 72° East 394 453 11,100 -1,080 Descending Minneapolis Center
06:29PM 44.7269 -94.0075 72° East 379 436 11,000 -60 Descending Minneapolis Center
06:30PM 44.7647 -93.8375 73° East 381 438 11,000  Level Minneapolis Center
06:31PM 44.7961 -93.6964 73° East 376 433 11,000 -360 Level Minneapolis Center
06:32PM 44.8233 -93.5731 73° East 332 382 10,300 -1,260 Descending Minneapolis Center
06:33PM 44.8481 -93.4611 73° East 302 348 8,500 -1,140 Descending Minneapolis Center
06:34PM 44.8533 -93.3589 86° East 269 310 8,000 -300 Descending Minneapolis Center
06:35PM 44.7886 -93.3283 161° South 254 292 8,000 -840 Level Minneapolis Center
06:36PM 44.7097 -93.3097 170° South 248 285 6,300 -1,260 Descending Minneapolis Center
06:38PM 44.6958 -93.2336 104° East 221 254 5,200 -900 Descending Minneapolis Center